sensor_id;sensor_type;location;lat;lon;timestamp;temperature;humidity
32706;DHT22;19094;50.972;3.538;2022-07-03T00:01:29;22.90;51.30
32706;DHT22;19094;50.972;3.538;2022-07-03T00:03:57;22.90;51.10
32706;DHT22;19094;50.972;3.538;2022-07-03T00:06:22;22.90;51.20
32706;DHT22;19094;50.972;3.538;2022-07-03T00:08:48;22.90;51.30
32706;DHT22;19094;50.972;3.538;2022-07-03T00:11:15;22.90;51.20
32706;DHT22;19094;50.972;3.538;2022-07-03T00:13:43;22.90;50.90
32706;DHT22;19094;50.972;3.538;2022-07-03T00:16:08;22.90;51.30
32706;DHT22;19094;50.972;3.538;2022-07-03T00:18:34;22.90;50.90
32706;DHT22;19094;50.972;3.538;2022-07-03T00:21:04;22.90;51.20
32706;DHT22;19094;50.972;3.538;2022-07-03T00:23:44;22.90;51.20
32706;DHT22;19094;50.972;3.538;2022-07-03T00:26:12;22.90;50.90
32706;DHT22;19094;50.972;3.538;2022-07-03T00:28:41;22.80;50.90
32706;DHT22;19094;50.972;3.538;2022-07-03T00:31:10;22.80;51.10
32706;DHT22;19094;50.972;3.538;2022-07-03T00:33:36;22.80;51.00
32706;DHT22;19094;50.972;3.538;2022-07-03T00:36:03;22.80;51.00
32706;DHT22;19094;50.972;3.538;2022-07-03T00:38:28;22.80;51.10
32706;DHT22;19094;50.972;3.538;2022-07-03T00:40:54;22.80;51.00
32706;DHT22;19094;50.972;3.538;2022-07-03T00:43:21;22.70;51.10
32706;DHT22;19094;50.972;3.538;2022-07-03T00:45:49;22.70;51.10
32706;DHT22;19094;50.972;3.538;2022-07-03T00:48:17;22.70;51.00
32706;DHT22;19094;50.972;3.538;2022-07-03T00:50:51;22.70;51.10
32706;DHT22;19094;50.972;3.538;2022-07-03T00:53:32;22.80;50.80
32706;DHT22;19094;50.972;3.538;2022-07-03T00:55:59;22.70;50.50
32706;DHT22;19094;50.972;3.538;2022-07-03T00:58:26;22.70;51.00
32706;DHT22;19094;50.972;3.538;2022-07-03T01:00:53;22.70;51.10
32706;DHT22;19094;50.972;3.538;2022-07-03T01:03:23;22.70;51.00
32706;DHT22;19094;50.972;3.538;2022-07-03T01:05:52;22.70;51.20
32706;DHT22;19094;50.972;3.538;2022-07-03T01:08:48;22.60;51.30
32706;DHT22;19094;50.972;3.538;2022-07-03T01:14:17;22.60;50.70
32706;DHT22;19094;50.972;3.538;2022-07-03T01:16:57;22.60;50.10
32706;DHT22;19094;50.972;3.538;2022-07-03T01:19:41;22.60;51.30
32706;DHT22;19094;50.972;3.538;2022-07-03T01:22:36;22.60;50.10
32706;DHT22;19094;50.972;3.538;2022-07-03T01:26:03;22.60;50.20
32706;DHT22;19094;50.972;3.538;2022-07-03T01:28:18;22.60;51.00
32706;DHT22;19094;50.972;3.538;2022-07-03T01:30:52;22.60;51.20
32706;DHT22;19094;50.972;3.538;2022-07-03T01:33:31;22.50;51.30
32706;DHT22;19094;50.972;3.538;2022-07-03T01:36:08;22.50;50.70
32706;DHT22;19094;50.972;3.538;2022-07-03T01:38:38;22.50;50.70
32706;DHT22;19094;50.972;3.538;2022-07-03T01:41:09;22.50;51.50
32706;DHT22;19094;50.972;3.538;2022-07-03T01:43:48;22.50;51.50
32706;DHT22;19094;50.972;3.538;2022-07-03T01:46:17;22.40;51.30
32706;DHT22;19094;50.972;3.538;2022-07-03T01:48:44;22.40;51.40
32706;DHT22;19094;50.972;3.538;2022-07-03T01:51:14;22.40;51.70
32706;DHT22;19094;50.972;3.538;2022-07-03T01:53:50;22.40;51.50
32706;DHT22;19094;50.972;3.538;2022-07-03T01:56:39;22.40;51.30
32706;DHT22;19094;50.972;3.538;2022-07-03T01:59:08;22.40;50.80
32706;DHT22;19094;50.972;3.538;2022-07-03T02:07:33;22.30;51.70
32706;DHT22;19094;50.972;3.538;2022-07-03T02:10:07;22.30;51.60
32706;DHT22;19094;50.972;3.538;2022-07-03T02:12:45;22.30;51.70
32706;DHT22;19094;50.972;3.538;2022-07-03T02:15:18;22.30;51.80
32706;DHT22;19094;50.972;3.538;2022-07-03T02:17:47;22.30;51.90
32706;DHT22;19094;50.972;3.538;2022-07-03T02:20:16;22.30;51.90
32706;DHT22;19094;50.972;3.538;2022-07-03T02:22:45;22.30;51.80
32706;DHT22;19094;50.972;3.538;2022-07-03T02:25:26;22.30;51.80
32706;DHT22;19094;50.972;3.538;2022-07-03T02:28:22;22.30;51.30
32706;DHT22;19094;50.972;3.538;2022-07-03T02:30:55;22.30;51.30
32706;DHT22;19094;50.972;3.538;2022-07-03T02:33:25;22.30;51.90
32706;DHT22;19094;50.972;3.538;2022-07-03T02:35:54;22.20;51.80
32706;DHT22;19094;50.972;3.538;2022-07-03T02:38:21;22.30;51.80
32706;DHT22;19094;50.972;3.538;2022-07-03T02:46:15;22.20;50.70
32706;DHT22;19094;50.972;3.538;2022-07-03T02:52:01;22.20;51.90
32706;DHT22;19094;50.972;3.538;2022-07-03T02:54:32;22.20;52.00
32706;DHT22;19094;50.972;3.538;2022-07-03T02:57:09;22.20;52.20
32706;DHT22;19094;50.972;3.538;2022-07-03T02:59:56;22.20;52.00
32706;DHT22;19094;50.972;3.538;2022-07-03T03:05:13;22.10;52.20
32706;DHT22;19094;50.972;3.538;2022-07-03T03:10:44;22.10;51.90
32706;DHT22;19094;50.972;3.538;2022-07-03T03:13:12;22.00;51.20
32706;DHT22;19094;50.972;3.538;2022-07-03T03:15:41;22.00;52.50
32706;DHT22;19094;50.972;3.538;2022-07-03T03:18:11;22.00;52.70
32706;DHT22;19094;50.972;3.538;2022-07-03T03:20:38;22.00;52.70
32706;DHT22;19094;50.972;3.538;2022-07-03T03:23:28;22.00;52.70
32706;DHT22;19094;50.972;3.538;2022-07-03T03:25:55;22.00;52.40
32706;DHT22;19094;50.972;3.538;2022-07-03T03:28:23;22.00;52.80
32706;DHT22;19094;50.972;3.538;2022-07-03T03:31:12;22.00;52.90
32706;DHT22;19094;50.972;3.538;2022-07-03T03:33:44;22.00;52.40
32706;DHT22;19094;50.972;3.538;2022-07-03T03:36:13;22.00;53.00
32706;DHT22;19094;50.972;3.538;2022-07-03T03:38:39;21.90;53.00
32706;DHT22;19094;50.972;3.538;2022-07-03T03:41:06;21.90;53.00
32706;DHT22;19094;50.972;3.538;2022-07-03T03:43:32;21.90;53.10
32706;DHT22;19094;50.972;3.538;2022-07-03T03:46:02;21.90;53.20
32706;DHT22;19094;50.972;3.538;2022-07-03T03:48:32;21.80;53.30
32706;DHT22;19094;50.972;3.538;2022-07-03T03:50:59;21.80;53.40
32706;DHT22;19094;50.972;3.538;2022-07-03T03:53:26;21.80;53.50
32706;DHT22;19094;50.972;3.538;2022-07-03T03:56:00;21.80;53.60
32706;DHT22;19094;50.972;3.538;2022-07-03T03:58:28;21.80;53.70
32706;DHT22;19094;50.972;3.538;2022-07-03T04:00:59;21.70;53.90
32706;DHT22;19094;50.972;3.538;2022-07-03T04:03:26;21.70;54.00
32706;DHT22;19094;50.972;3.538;2022-07-03T04:05:55;21.60;54.00
32706;DHT22;19094;50.972;3.538;2022-07-03T04:08:22;21.60;54.20
32706;DHT22;19094;50.972;3.538;2022-07-03T04:10:48;21.60;54.30
32706;DHT22;19094;50.972;3.538;2022-07-03T04:13:16;21.60;54.40
32706;DHT22;19094;50.972;3.538;2022-07-03T04:15:42;21.50;54.40
32706;DHT22;19094;50.972;3.538;2022-07-03T04:18:08;21.50;54.40
32706;DHT22;19094;50.972;3.538;2022-07-03T04:20:34;21.50;54.50
32706;DHT22;19094;50.972;3.538;2022-07-03T04:23:00;21.50;54.50
32706;DHT22;19094;50.972;3.538;2022-07-03T04:25:27;21.50;54.60
32706;DHT22;19094;50.972;3.538;2022-07-03T04:27:54;21.60;54.70
32706;DHT22;19094;50.972;3.538;2022-07-03T04:30:21;21.50;54.60
32706;DHT22;19094;50.972;3.538;2022-07-03T04:32:46;21.50;54.70
32706;DHT22;19094;50.972;3.538;2022-07-03T04:35:14;21.50;54.80
32706;DHT22;19094;50.972;3.538;2022-07-03T04:37:40;21.50;54.80
32706;DHT22;19094;50.972;3.538;2022-07-03T04:40:07;21.50;54.90
32706;DHT22;19094;50.972;3.538;2022-07-03T04:42:34;21.50;55.00
32706;DHT22;19094;50.972;3.538;2022-07-03T04:45:01;21.50;55.00
32706;DHT22;19094;50.972;3.538;2022-07-03T04:47:27;21.50;55.00
32706;DHT22;19094;50.972;3.538;2022-07-03T04:49:53;21.50;54.90
32706;DHT22;19094;50.972;3.538;2022-07-03T04:52:19;21.50;55.00
32706;DHT22;19094;50.972;3.538;2022-07-03T04:54:46;21.50;55.10
32706;DHT22;19094;50.972;3.538;2022-07-03T04:57:12;21.50;55.10
32706;DHT22;19094;50.972;3.538;2022-07-03T04:59:38;21.50;55.20
32706;DHT22;19094;50.972;3.538;2022-07-03T05:02:04;21.50;55.10
32706;DHT22;19094;50.972;3.538;2022-07-03T05:04:30;21.50;55.20
32706;DHT22;19094;50.972;3.538;2022-07-03T05:06:57;21.50;55.20
32706;DHT22;19094;50.972;3.538;2022-07-03T05:09:22;21.50;55.20
32706;DHT22;19094;50.972;3.538;2022-07-03T05:11:48;21.50;55.20
32706;DHT22;19094;50.972;3.538;2022-07-03T05:14:14;21.50;55.10
32706;DHT22;19094;50.972;3.538;2022-07-03T05:16:40;21.50;55.20
32706;DHT22;19094;50.972;3.538;2022-07-03T05:19:06;21.50;55.10
32706;DHT22;19094;50.972;3.538;2022-07-03T05:21:34;21.50;55.30
32706;DHT22;19094;50.972;3.538;2022-07-03T05:24:01;21.50;55.30
32706;DHT22;19094;50.972;3.538;2022-07-03T05:26:27;21.50;55.30
32706;DHT22;19094;50.972;3.538;2022-07-03T05:29:03;21.50;55.20
32706;DHT22;19094;50.972;3.538;2022-07-03T05:31:30;21.50;55.30
32706;DHT22;19094;50.972;3.538;2022-07-03T05:33:56;21.50;55.30
32706;DHT22;19094;50.972;3.538;2022-07-03T05:36:22;21.50;55.30
32706;DHT22;19094;50.972;3.538;2022-07-03T05:38:47;21.50;55.40
32706;DHT22;19094;50.972;3.538;2022-07-03T05:41:32;21.50;55.30
32706;DHT22;19094;50.972;3.538;2022-07-03T05:43:57;21.50;55.30
32706;DHT22;19094;50.972;3.538;2022-07-03T05:46:23;21.50;55.20
32706;DHT22;19094;50.972;3.538;2022-07-03T05:48:49;21.60;55.30
32706;DHT22;19094;50.972;3.538;2022-07-03T05:51:16;21.60;55.20
32706;DHT22;19094;50.972;3.538;2022-07-03T05:53:42;21.60;55.20
32706;DHT22;19094;50.972;3.538;2022-07-03T05:56:09;21.60;55.30
32706;DHT22;19094;50.972;3.538;2022-07-03T05:58:36;21.60;55.20
32706;DHT22;19094;50.972;3.538;2022-07-03T06:01:01;21.60;55.20
32706;DHT22;19094;50.972;3.538;2022-07-03T06:03:27;21.60;55.20
32706;DHT22;19094;50.972;3.538;2022-07-03T06:05:58;21.60;55.30
32706;DHT22;19094;50.972;3.538;2022-07-03T06:08:24;21.60;55.20
32706;DHT22;19094;50.972;3.538;2022-07-03T06:10:53;21.60;56.00
32706;DHT22;19094;50.972;3.538;2022-07-03T06:13:18;21.60;55.20
32706;DHT22;19094;50.972;3.538;2022-07-03T06:15:44;21.60;55.30
32706;DHT22;19094;50.972;3.538;2022-07-03T06:18:09;21.60;55.20
32706;DHT22;19094;50.972;3.538;2022-07-03T06:20:35;21.70;55.30
32706;DHT22;19094;50.972;3.538;2022-07-03T06:23:02;21.70;55.30
32706;DHT22;19094;50.972;3.538;2022-07-03T06:25:29;21.60;55.20
32706;DHT22;19094;50.972;3.538;2022-07-03T06:27:55;21.60;55.30
32706;DHT22;19094;50.972;3.538;2022-07-03T06:30:20;21.60;55.20
32706;DHT22;19094;50.972;3.538;2022-07-03T06:32:46;21.60;55.30
32706;DHT22;19094;50.972;3.538;2022-07-03T06:35:12;21.70;55.30
32706;DHT22;19094;50.972;3.538;2022-07-03T06:37:38;21.60;55.20
32706;DHT22;19094;50.972;3.538;2022-07-03T06:40:04;21.70;55.30
32706;DHT22;19094;50.972;3.538;2022-07-03T06:42:30;21.70;55.20
32706;DHT22;19094;50.972;3.538;2022-07-03T06:44:56;21.70;55.10
32706;DHT22;19094;50.972;3.538;2022-07-03T06:47:22;21.70;54.90
32706;DHT22;19094;50.972;3.538;2022-07-03T06:49:48;21.70;54.90
32706;DHT22;19094;50.972;3.538;2022-07-03T06:52:13;21.60;55.30
32706;DHT22;19094;50.972;3.538;2022-07-03T06:54:39;21.50;55.90
32706;DHT22;19094;50.972;3.538;2022-07-03T06:57:12;21.60;55.60
32706;DHT22;19094;50.972;3.538;2022-07-03T06:59:38;21.70;55.40
32706;DHT22;19094;50.972;3.538;2022-07-03T07:02:04;21.80;55.10
32706;DHT22;19094;50.972;3.538;2022-07-03T07:04:31;21.90;55.20
32706;DHT22;19094;50.972;3.538;2022-07-03T07:06:57;21.80;55.80
32706;DHT22;19094;50.972;3.538;2022-07-03T07:09:22;21.90;55.40
32706;DHT22;19094;50.972;3.538;2022-07-03T07:11:48;21.90;55.20
32706;DHT22;19094;50.972;3.538;2022-07-03T07:14:14;22.00;55.10
32706;DHT22;19094;50.972;3.538;2022-07-03T07:16:41;22.00;55.00
32706;DHT22;19094;50.972;3.538;2022-07-03T07:19:07;22.00;55.10
32706;DHT22;19094;50.972;3.538;2022-07-03T07:21:34;22.10;54.90
32706;DHT22;19094;50.972;3.538;2022-07-03T07:24:03;22.10;55.10
32706;DHT22;19094;50.972;3.538;2022-07-03T07:26:30;22.10;54.80
32706;DHT22;19094;50.972;3.538;2022-07-03T07:28:56;22.10;54.70
32706;DHT22;19094;50.972;3.538;2022-07-03T07:31:22;22.10;54.50
32706;DHT22;19094;50.972;3.538;2022-07-03T07:33:49;22.10;54.40
32706;DHT22;19094;50.972;3.538;2022-07-03T07:36:15;22.20;54.50
32706;DHT22;19094;50.972;3.538;2022-07-03T07:38:41;22.20;54.50
32706;DHT22;19094;50.972;3.538;2022-07-03T07:41:09;22.20;54.60
32706;DHT22;19094;50.972;3.538;2022-07-03T07:43:35;22.20;54.50
32706;DHT22;19094;50.972;3.538;2022-07-03T07:46:01;22.20;54.50
32706;DHT22;19094;50.972;3.538;2022-07-03T07:48:27;22.30;54.30
32706;DHT22;19094;50.972;3.538;2022-07-03T07:50:52;22.30;54.30
32706;DHT22;19094;50.972;3.538;2022-07-03T07:53:19;22.20;54.10
32706;DHT22;19094;50.972;3.538;2022-07-03T07:55:46;22.30;54.30
32706;DHT22;19094;50.972;3.538;2022-07-03T07:58:11;22.30;54.20
32706;DHT22;19094;50.972;3.538;2022-07-03T08:00:37;22.30;54.20
32706;DHT22;19094;50.972;3.538;2022-07-03T08:03:26;22.30;54.00
32706;DHT22;19094;50.972;3.538;2022-07-03T08:06:12;22.40;54.10
32706;DHT22;19094;50.972;3.538;2022-07-03T08:08:38;22.40;54.60
32706;DHT22;19094;50.972;3.538;2022-07-03T08:11:04;22.40;54.00
32706;DHT22;19094;50.972;3.538;2022-07-03T08:13:30;22.40;54.00
32706;DHT22;19094;50.972;3.538;2022-07-03T08:15:57;22.40;54.40
32706;DHT22;19094;50.972;3.538;2022-07-03T08:18:23;22.40;54.00
32706;DHT22;19094;50.972;3.538;2022-07-03T08:20:50;22.30;54.20
32706;DHT22;19094;50.972;3.538;2022-07-03T08:23:15;22.30;54.10
32706;DHT22;19094;50.972;3.538;2022-07-03T08:25:43;22.30;54.00
32706;DHT22;19094;50.972;3.538;2022-07-03T08:28:09;22.40;53.70
32706;DHT22;19094;50.972;3.538;2022-07-03T08:30:34;22.40;53.90
32706;DHT22;19094;50.972;3.538;2022-07-03T08:33:00;22.40;53.90
32706;DHT22;19094;50.972;3.538;2022-07-03T08:35:27;22.40;53.60
32706;DHT22;19094;50.972;3.538;2022-07-03T08:37:53;22.50;53.60
32706;DHT22;19094;50.972;3.538;2022-07-03T08:40:20;22.50;53.70
32706;DHT22;19094;50.972;3.538;2022-07-03T08:42:57;22.50;53.60
32706;DHT22;19094;50.972;3.538;2022-07-03T08:45:24;22.50;54.20
32706;DHT22;19094;50.972;3.538;2022-07-03T08:47:52;22.50;53.40
32706;DHT22;19094;50.972;3.538;2022-07-03T08:50:19;22.50;53.30
32706;DHT22;19094;50.972;3.538;2022-07-03T08:52:46;22.50;53.40
32706;DHT22;19094;50.972;3.538;2022-07-03T08:55:13;22.50;53.50
32706;DHT22;19094;50.972;3.538;2022-07-03T08:57:40;22.60;54.00
32706;DHT22;19094;50.972;3.538;2022-07-03T09:00:09;22.60;53.40
32706;DHT22;19094;50.972;3.538;2022-07-03T09:02:39;22.70;53.30
32706;DHT22;19094;50.972;3.538;2022-07-03T09:05:09;22.70;53.20
32706;DHT22;19094;50.972;3.538;2022-07-03T09:07:36;22.70;53.10
32706;DHT22;19094;50.972;3.538;2022-07-03T09:10:07;22.80;52.90
32706;DHT22;19094;50.972;3.538;2022-07-03T09:12:34;22.70;53.40
32706;DHT22;19094;50.972;3.538;2022-07-03T09:15:03;22.80;52.90
32706;DHT22;19094;50.972;3.538;2022-07-03T09:17:35;22.80;52.80
32706;DHT22;19094;50.972;3.538;2022-07-03T09:20:05;22.80;52.50
32706;DHT22;19094;50.972;3.538;2022-07-03T09:22:36;22.90;52.50
32706;DHT22;19094;50.972;3.538;2022-07-03T09:25:13;22.90;52.40
32706;DHT22;19094;50.972;3.538;2022-07-03T09:27:52;22.90;51.50
32706;DHT22;19094;50.972;3.538;2022-07-03T09:30:18;23.00;51.90
32706;DHT22;19094;50.972;3.538;2022-07-03T09:32:47;23.00;51.60
32706;DHT22;19094;50.972;3.538;2022-07-03T09:35:24;23.00;51.10
32706;DHT22;19094;50.972;3.538;2022-07-03T09:40:24;23.00;51.20
32706;DHT22;19094;50.972;3.538;2022-07-03T09:43:00;23.10;50.40
32706;DHT22;19094;50.972;3.538;2022-07-03T09:46:11;23.10;51.30
32706;DHT22;19094;50.972;3.538;2022-07-03T09:53:57;23.20;49.70
32706;DHT22;19094;50.972;3.538;2022-07-03T09:56:34;23.30;49.70
32706;DHT22;19094;50.972;3.538;2022-07-03T09:59:11;23.20;50.30
32706;DHT22;19094;50.972;3.538;2022-07-03T10:01:46;23.30;50.20
32706;DHT22;19094;50.972;3.538;2022-07-03T10:04:20;23.20;50.10
32706;DHT22;19094;50.972;3.538;2022-07-03T10:06:56;23.20;50.60
32706;DHT22;19094;50.972;3.538;2022-07-03T10:09:29;23.20;50.20
32706;DHT22;19094;50.972;3.538;2022-07-03T10:11:57;23.20;50.30
32706;DHT22;19094;50.972;3.538;2022-07-03T10:14:29;23.20;50.60
32706;DHT22;19094;50.972;3.538;2022-07-03T10:16:55;23.20;50.10
32706;DHT22;19094;50.972;3.538;2022-07-03T10:19:27;23.30;49.60
32706;DHT22;19094;50.972;3.538;2022-07-03T10:22:01;23.30;50.60
32706;DHT22;19094;50.972;3.538;2022-07-03T10:24:30;23.30;49.60
32706;DHT22;19094;50.972;3.538;2022-07-03T10:26:57;23.30;50.90
32706;DHT22;19094;50.972;3.538;2022-07-03T10:29:24;23.30;50.40
32706;DHT22;19094;50.972;3.538;2022-07-03T10:31:52;23.30;49.80
32706;DHT22;19094;50.972;3.538;2022-07-03T10:34:23;23.40;49.50
32706;DHT22;19094;50.972;3.538;2022-07-03T10:36:56;23.40;49.50
32706;DHT22;19094;50.972;3.538;2022-07-03T10:39:26;23.40;50.00
32706;DHT22;19094;50.972;3.538;2022-07-03T10:41:56;23.40;47.80
32706;DHT22;19094;50.972;3.538;2022-07-03T10:47:39;23.40;49.00
32706;DHT22;19094;50.972;3.538;2022-07-03T10:50:15;23.50;49.00
32706;DHT22;19094;50.972;3.538;2022-07-03T10:52:42;23.50;48.50
32706;DHT22;19094;50.972;3.538;2022-07-03T10:55:11;23.60;48.30
32706;DHT22;19094;50.972;3.538;2022-07-03T10:57:38;23.70;48.60
32706;DHT22;19094;50.972;3.538;2022-07-03T11:00:12;23.70;48.40
32706;DHT22;19094;50.972;3.538;2022-07-03T11:02:39;23.70;48.10
32706;DHT22;19094;50.972;3.538;2022-07-03T11:15:40;23.80;48.20
32706;DHT22;19094;50.972;3.538;2022-07-03T11:18:19;23.70;49.00
32706;DHT22;19094;50.972;3.538;2022-07-03T11:33:46;23.80;46.80
32706;DHT22;19094;50.972;3.538;2022-07-03T11:38:41;23.90;47.80
32706;DHT22;19094;50.972;3.538;2022-07-03T11:41:12;23.90;48.20
32706;DHT22;19094;50.972;3.538;2022-07-03T11:43:38;23.90;47.60
32706;DHT22;19094;50.972;3.538;2022-07-03T11:46:15;23.90;47.90
32706;DHT22;19094;50.972;3.538;2022-07-03T11:48:43;23.90;47.50
32706;DHT22;19094;50.972;3.538;2022-07-03T11:51:09;23.90;47.60
32706;DHT22;19094;50.972;3.538;2022-07-03T11:53:37;23.90;47.60
32706;DHT22;19094;50.972;3.538;2022-07-03T11:56:13;23.90;47.40
32706;DHT22;19094;50.972;3.538;2022-07-03T11:58:55;23.90;47.10
32706;DHT22;19094;50.972;3.538;2022-07-03T12:01:28;23.90;47.60
32706;DHT22;19094;50.972;3.538;2022-07-03T12:09:19;24.00;47.10
32706;DHT22;19094;50.972;3.538;2022-07-03T12:12:10;24.10;47.50
32706;DHT22;19094;50.972;3.538;2022-07-03T12:14:45;24.10;47.00
32706;DHT22;19094;50.972;3.538;2022-07-03T12:17:19;24.10;46.80
32706;DHT22;19094;50.972;3.538;2022-07-03T12:22:12;24.30;47.30
32706;DHT22;19094;50.972;3.538;2022-07-03T12:24:38;24.30;46.30
32706;DHT22;19094;50.972;3.538;2022-07-03T12:27:06;24.40;45.50
32706;DHT22;19094;50.972;3.538;2022-07-03T12:29:35;24.40;45.70
32706;DHT22;19094;50.972;3.538;2022-07-03T12:32:08;24.50;46.60
32706;DHT22;19094;50.972;3.538;2022-07-03T12:34:38;24.50;45.10
32706;DHT22;19094;50.972;3.538;2022-07-03T12:37:04;24.50;45.80
32706;DHT22;19094;50.972;3.538;2022-07-03T12:39:46;24.60;44.10
32706;DHT22;19094;50.972;3.538;2022-07-03T12:42:20;24.60;44.30
32706;DHT22;19094;50.972;3.538;2022-07-03T12:45:03;24.60;44.70
32706;DHT22;19094;50.972;3.538;2022-07-03T12:47:33;24.70;44.20
32706;DHT22;19094;50.972;3.538;2022-07-03T12:50:01;24.70;43.90
32706;DHT22;19094;50.972;3.538;2022-07-03T12:52:31;24.70;44.80
32706;DHT22;19094;50.972;3.538;2022-07-03T12:55:00;24.80;43.80
32706;DHT22;19094;50.972;3.538;2022-07-03T12:57:30;24.80;45.60
32706;DHT22;19094;50.972;3.538;2022-07-03T13:00:17;24.90;44.60
32706;DHT22;19094;50.972;3.538;2022-07-03T13:02:45;24.90;44.40
32706;DHT22;19094;50.972;3.538;2022-07-03T13:05:24;24.90;45.00
32706;DHT22;19094;50.972;3.538;2022-07-03T13:07:54;24.90;44.40
32706;DHT22;19094;50.972;3.538;2022-07-03T13:10:23;24.90;45.00
32706;DHT22;19094;50.972;3.538;2022-07-03T13:12:58;24.80;45.30
32706;DHT22;19094;50.972;3.538;2022-07-03T13:15:27;24.80;45.00
32706;DHT22;19094;50.972;3.538;2022-07-03T13:20:30;24.70;46.50
32706;DHT22;19094;50.972;3.538;2022-07-03T13:23:02;24.70;45.90
32706;DHT22;19094;50.972;3.538;2022-07-03T13:25:29;24.70;45.30
32706;DHT22;19094;50.972;3.538;2022-07-03T13:28:12;24.80;44.90
32706;DHT22;19094;50.972;3.538;2022-07-03T13:30:41;24.80;46.40
32706;DHT22;19094;50.972;3.538;2022-07-03T13:33:08;24.80;46.50
32706;DHT22;19094;50.972;3.538;2022-07-03T13:35:36;24.80;46.10
32706;DHT22;19094;50.972;3.538;2022-07-03T13:38:03;24.70;46.60
32706;DHT22;19094;50.972;3.538;2022-07-03T13:40:32;24.60;46.70
32706;DHT22;19094;50.972;3.538;2022-07-03T13:43:03;24.70;45.80
32706;DHT22;19094;50.972;3.538;2022-07-03T13:45:33;24.60;46.60
32706;DHT22;19094;50.972;3.538;2022-07-03T13:48:00;24.60;46.80
32706;DHT22;19094;50.972;3.538;2022-07-03T13:50:26;24.70;46.90
32706;DHT22;19094;50.972;3.538;2022-07-03T13:52:56;24.70;46.80
32706;DHT22;19094;50.972;3.538;2022-07-03T13:55:22;24.70;45.90
32706;DHT22;19094;50.972;3.538;2022-07-03T13:57:48;24.70;46.00
32706;DHT22;19094;50.972;3.538;2022-07-03T14:00:15;24.80;45.90
32706;DHT22;19094;50.972;3.538;2022-07-03T14:02:41;24.80;46.50
32706;DHT22;19094;50.972;3.538;2022-07-03T14:05:08;24.80;45.60
32706;DHT22;19094;50.972;3.538;2022-07-03T14:07:34;24.80;45.60
32706;DHT22;19094;50.972;3.538;2022-07-03T14:10:00;24.90;45.60
32706;DHT22;19094;50.972;3.538;2022-07-03T14:12:27;25.00;45.70
32706;DHT22;19094;50.972;3.538;2022-07-03T14:14:54;25.00;45.60
32706;DHT22;19094;50.972;3.538;2022-07-03T14:17:21;25.00;46.00
32706;DHT22;19094;50.972;3.538;2022-07-03T14:19:46;25.10;46.30
32706;DHT22;19094;50.972;3.538;2022-07-03T14:22:12;25.10;46.10
32706;DHT22;19094;50.972;3.538;2022-07-03T14:24:38;25.10;46.10
32706;DHT22;19094;50.972;3.538;2022-07-03T14:27:03;25.20;45.20
32706;DHT22;19094;50.972;3.538;2022-07-03T14:29:48;25.30;45.80
32706;DHT22;19094;50.972;3.538;2022-07-03T14:32:32;25.30;45.90
32706;DHT22;19094;50.972;3.538;2022-07-03T14:35:03;25.30;45.40
32706;DHT22;19094;50.972;3.538;2022-07-03T14:37:29;25.40;44.90
32706;DHT22;19094;50.972;3.538;2022-07-03T14:39:56;25.40;45.40
32706;DHT22;19094;50.972;3.538;2022-07-03T14:42:22;25.50;44.20
32706;DHT22;19094;50.972;3.538;2022-07-03T14:44:47;25.60;44.70
32706;DHT22;19094;50.972;3.538;2022-07-03T14:47:13;25.60;45.10
32706;DHT22;19094;50.972;3.538;2022-07-03T14:49:41;25.50;44.60
32706;DHT22;19094;50.972;3.538;2022-07-03T14:52:08;25.50;44.60
32706;DHT22;19094;50.972;3.538;2022-07-03T14:54:34;25.50;44.60
32706;DHT22;19094;50.972;3.538;2022-07-03T14:57:02;25.40;44.70
32706;DHT22;19094;50.972;3.538;2022-07-03T15:02:19;25.40;44.40
32706;DHT22;19094;50.972;3.538;2022-07-03T15:07:41;25.20;45.30
32706;DHT22;19094;50.972;3.538;2022-07-03T15:10:12;25.20;44.30
32706;DHT22;19094;50.972;3.538;2022-07-03T15:12:41;25.10;44.80
32706;DHT22;19094;50.972;3.538;2022-07-03T15:15:13;25.10;44.90
32706;DHT22;19094;50.972;3.538;2022-07-03T15:17:41;25.10;44.90
32706;DHT22;19094;50.972;3.538;2022-07-03T15:20:08;25.10;45.30
32706;DHT22;19094;50.972;3.538;2022-07-03T15:22:42;25.10;45.20
32706;DHT22;19094;50.972;3.538;2022-07-03T15:25:13;25.10;45.20
32706;DHT22;19094;50.972;3.538;2022-07-03T15:27:39;25.10;45.50
32706;DHT22;19094;50.972;3.538;2022-07-03T15:30:07;25.10;45.40
32706;DHT22;19094;50.972;3.538;2022-07-03T15:32:36;25.00;45.40
32706;DHT22;19094;50.972;3.538;2022-07-03T15:35:02;25.00;45.40
32706;DHT22;19094;50.972;3.538;2022-07-03T15:40:44;25.00;45.70
32706;DHT22;19094;50.972;3.538;2022-07-03T15:46:54;25.00;45.40
32706;DHT22;19094;50.972;3.538;2022-07-03T15:49:27;24.90;45.50
32706;DHT22;19094;50.972;3.538;2022-07-03T15:52:18;24.90;45.80
32706;DHT22;19094;50.972;3.538;2022-07-03T15:54:52;24.80;45.80
32706;DHT22;19094;50.972;3.538;2022-07-03T15:57:36;24.90;45.60
32706;DHT22;19094;50.972;3.538;2022-07-03T16:00:10;24.80;45.80
32706;DHT22;19094;50.972;3.538;2022-07-03T16:05:34;24.80;46.00
32706;DHT22;19094;50.972;3.538;2022-07-03T16:08:04;24.80;46.00
32706;DHT22;19094;50.972;3.538;2022-07-03T16:10:31;24.80;46.00
32706;DHT22;19094;50.972;3.538;2022-07-03T16:13:02;24.60;46.20
32706;DHT22;19094;50.972;3.538;2022-07-03T16:15:34;24.60;46.50
32706;DHT22;19094;50.972;3.538;2022-07-03T16:18:00;24.60;46.30
32706;DHT22;19094;50.972;3.538;2022-07-03T16:20:27;24.70;46.20
32706;DHT22;19094;50.972;3.538;2022-07-03T16:23:02;24.70;46.00
32706;DHT22;19094;50.972;3.538;2022-07-03T16:25:33;24.70;46.10
32706;DHT22;19094;50.972;3.538;2022-07-03T16:28:01;24.70;46.20
32706;DHT22;19094;50.972;3.538;2022-07-03T16:30:29;24.30;47.20
32706;DHT22;19094;50.972;3.538;2022-07-03T16:32:55;24.30;47.40
32706;DHT22;19094;50.972;3.538;2022-07-03T16:35:34;24.50;47.10
32706;DHT22;19094;50.972;3.538;2022-07-03T16:38:03;24.50;47.00
32706;DHT22;19094;50.972;3.538;2022-07-03T16:40:31;24.60;46.90
32706;DHT22;19094;50.972;3.538;2022-07-03T16:43:06;24.60;47.00
32706;DHT22;19094;50.972;3.538;2022-07-03T16:45:34;24.50;47.00
32706;DHT22;19094;50.972;3.538;2022-07-03T16:48:12;24.50;47.10
32706;DHT22;19094;50.972;3.538;2022-07-03T16:50:53;24.50;47.30
32706;DHT22;19094;50.972;3.538;2022-07-03T16:53:21;24.40;47.40
32706;DHT22;19094;50.972;3.538;2022-07-03T16:55:48;24.40;47.50
32706;DHT22;19094;50.972;3.538;2022-07-03T16:58:14;24.40;47.70
32706;DHT22;19094;50.972;3.538;2022-07-03T17:00:40;24.40;47.90
32706;DHT22;19094;50.972;3.538;2022-07-03T17:03:08;24.30;47.90
32706;DHT22;19094;50.972;3.538;2022-07-03T17:05:35;24.30;48.10
32706;DHT22;19094;50.972;3.538;2022-07-03T17:08:02;24.30;47.90
32706;DHT22;19094;50.972;3.538;2022-07-03T17:10:31;24.30;48.10
32706;DHT22;19094;50.972;3.538;2022-07-03T17:12:59;24.20;48.30